createdAt,value
2023-05-18T00:00:30.526Z,97041.25
2023-05-18T00:03:01.499Z,111780.34
2023-05-18T00:05:33.988Z,123281.38
2023-05-18T00:08:03.307Z,133491.78
2023-05-18T00:10:31.647Z,140817.72
2023-05-18T00:12:59.543Z,142517.19
2023-05-18T00:15:27.868Z,144940.47
2023-05-18T00:17:57.136Z,145207.50
2023-05-18T00:20:26.614Z,144482.13
2023-05-18T00:22:54.589Z,146193.72
2023-05-18T00:25:24.185Z,146176.16
2023-05-18T00:27:52.295Z,147182.28
2023-05-18T00:30:21.105Z,147835.28
2023-05-18T00:32:49.112Z,147813.72
2023-05-18T00:35:17.098Z,148231.69
2023-05-18T00:37:45.131Z,148569.75
2023-05-18T00:40:13.833Z,148892.50
2023-05-18T00:42:43.068Z,148522.59
2023-05-18T00:45:11.718Z,148858.00
2023-05-18T00:47:39.971Z,149217.78
2023-05-18T00:50:10.014Z,149919.63
2023-05-18T00:52:39.747Z,149955.69
2023-05-18T00:55:09.264Z,150053.50
2023-05-18T00:57:42.107Z,148943.66
2023-05-18T01:00:14.054Z,148273.66
2023-05-18T01:02:45.342Z,147954.59
2023-05-18T01:05:14.069Z,147317.47
2023-05-18T01:07:43.907Z,146914.94
2023-05-18T01:10:13.319Z,146925.03
2023-05-18T01:12:46.999Z,148024.44
2023-05-18T01:15:19.620Z,147662.03
2023-05-18T01:18:00.920Z,147659.50
2023-05-18T01:20:37.889Z,147966.03
2023-05-18T01:23:52.335Z,149445.84
2023-05-18T01:26:29.870Z,149864.13
2023-05-18T01:29:00.854Z,147778.59
2023-05-18T01:31:29.083Z,145369.53
2023-05-18T01:33:57.015Z,143300.88
2023-05-18T01:36:26.079Z,141605.97
2023-05-18T01:38:55.318Z,142247.69
2023-05-18T01:41:28.168Z,142994.69
2023-05-18T01:44:02.900Z,143688.25
2023-05-18T01:46:37.732Z,142660.25
2023-05-18T01:49:14.717Z,140976.03
2023-05-18T01:51:46.354Z,136464.84
2023-05-18T01:54:18.390Z,134780.00
2023-05-18T01:56:49.886Z,134592.31
2023-05-18T01:59:18.840Z,135314.34
2023-05-18T02:01:46.714Z,133350.22
2023-05-18T02:04:14.839Z,131324.72
2023-05-18T02:06:43.012Z,129284.66
2023-05-18T02:09:13.355Z,128525.97
2023-05-18T02:11:41.537Z,126769.34
2023-05-18T02:14:40.973Z,122965.03
2023-05-18T02:17:09.254Z,118930.94
2023-05-18T02:19:38.378Z,110997.44
2023-05-18T02:22:11.605Z,121831.94
2023-05-18T02:24:46.248Z,122520.44
2023-05-18T02:27:21.422Z,123168.84
2023-05-18T02:29:52.845Z,122821.78
2023-05-18T02:32:21.815Z,124105.75
2023-05-18T02:34:53.350Z,123740.03
2023-05-18T02:37:23.276Z,120773.28
2023-05-18T02:39:51.292Z,117980.09
2023-05-18T02:42:19.316Z,118713.88
2023-05-18T02:44:47.217Z,120287.75
2023-05-18T02:47:16.672Z,119908.25
2023-05-18T02:49:45.205Z,118883.06
2023-05-18T02:52:13.407Z,117540.91
2023-05-18T02:54:41.533Z,115669.38
2023-05-18T02:57:11.970Z,112530.44
2023-05-18T02:59:39.960Z,112967.25
2023-05-18T03:02:08.097Z,113456.97
2023-05-18T03:04:37.892Z,111916.28
2023-05-18T03:07:08.072Z,110774.03
2023-05-18T03:09:36.348Z,110327.00
2023-05-18T03:12:04.462Z,111151.41
2023-05-18T03:14:32.439Z,113762.31
2023-05-18T03:17:00.543Z,114786.03
2023-05-18T03:19:28.594Z,114665.25
2023-05-18T03:21:58.940Z,116805.75
2023-05-18T03:24:30.409Z,117779.31
2023-05-18T03:27:00.980Z,118648.53
2023-05-18T03:29:31.330Z,117170.47
2023-05-18T03:32:00.003Z,116125.91
2023-05-18T03:34:30.267Z,113816.00
2023-05-18T03:37:00.024Z,113758.75
2023-05-18T03:39:28.076Z,114480.50
2023-05-18T03:41:57.154Z,111011.91
2023-05-18T03:44:25.325Z,107103.22
2023-05-18T03:46:53.564Z,98220.44
2023-05-18T03:49:21.590Z,97132.03
2023-05-18T03:51:49.496Z,97626.16
2023-05-18T03:54:18.735Z,99557.72
2023-05-18T03:56:48.380Z,98686.00
2023-05-18T03:59:16.478Z,97710.66
2023-05-18T04:01:44.659Z,98022.03
2023-05-18T04:04:17.963Z,95905.34
2023-05-18T04:06:47.199Z,97444.75
2023-05-18T04:09:17.313Z,97255.09
2023-05-18T04:11:47.116Z,97549.66
2023-05-18T04:14:17.110Z,95264.19
2023-05-18T04:16:46.382Z,92867.47
2023-05-18T04:19:14.982Z,90748.00
2023-05-18T04:21:43.603Z,89369.94
2023-05-18T04:24:14.573Z,87841.00
2023-05-18T04:26:46.560Z,88209.00
2023-05-18T04:29:15.588Z,84121.19
2023-05-18T04:31:45.044Z,82852.81
2023-05-18T04:34:13.824Z,81834.56
2023-05-18T04:36:43.904Z,78508.66
2023-05-18T04:39:12.567Z,79066.38
2023-05-18T04:41:42.193Z,85556.59
2023-05-18T04:44:14.073Z,87087.84
2023-05-18T04:46:43.275Z,-20033.63
2023-05-18T04:49:14.054Z,-20038.81
2023-05-18T04:51:43.690Z,-20038.94
2023-05-18T04:54:13.091Z,-20035.72
2023-05-18T04:56:41.290Z,-20041.19
2023-05-18T04:59:11.092Z,-20042.47
2023-05-18T05:01:40.352Z,-20042.75
2023-05-18T05:04:08.494Z,-20043.31
2023-05-18T05:06:38.727Z,-20046.94
2023-05-18T05:09:06.818Z,-20048.34
2023-05-18T05:11:35.309Z,-20049.78
2023-05-18T05:14:03.995Z,-20048.06
2023-05-18T05:16:35.064Z,-20050.88
2023-05-18T05:19:03.769Z,-20046.41
2023-05-18T05:21:32.289Z,-20046.69
2023-05-18T05:24:01.688Z,-20053.13
2023-05-18T05:26:29.624Z,-20060.56
2023-05-18T05:28:57.491Z,-20065.47
2023-05-18T05:31:26.957Z,-20062.41
2023-05-18T05:33:56.242Z,-20060.72
2023-05-18T05:36:24.157Z,-20066.03
2023-05-18T05:38:53.421Z,-20073.91
2023-05-18T05:41:23.414Z,-20079.66
2023-05-18T05:43:51.513Z,-20088.63
2023-05-18T05:46:19.605Z,-20086.94
2023-05-18T05:48:48.008Z,-20091.00
2023-05-18T05:51:17.806Z,-20083.16
2023-05-18T05:53:49.764Z,-20076.16
2023-05-18T05:56:17.820Z,-20077.56
2023-05-18T05:58:46.104Z,-20075.88
2023-05-18T06:01:14.118Z,-20078.09
2023-05-18T06:03:42.871Z,-20077.13
2023-05-18T06:06:11.345Z,-20093.81
2023-05-18T06:08:40.789Z,-20078.38
2023-05-18T06:11:10.758Z,-20093.25
2023-05-18T06:13:39.489Z,-20098.03
2023-05-18T06:16:07.560Z,-20099.28
2023-05-18T06:18:36.893Z,-20092.97
2023-05-18T06:21:06.315Z,-20094.94
2023-05-18T06:23:34.293Z,-20102.09
2023-05-18T06:26:04.040Z,-20098.03
2023-05-18T06:28:32.142Z,-20097.19
2023-05-18T06:31:00.298Z,-20106.00
2023-05-18T06:33:28.507Z,-20114.84
2023-05-18T06:35:57.127Z,-20113.44
2023-05-18T06:38:25.246Z,-20129.69
2023-05-18T06:40:53.435Z,-20138.34
2023-05-18T06:43:23.120Z,-20128.28
2023-05-18T06:45:51.307Z,-20137.78
2023-05-18T06:48:19.392Z,-20133.59
2023-05-18T06:50:47.383Z,-20134.72
2023-05-18T06:53:17.361Z,-20126.03
2023-05-18T06:55:47.388Z,-20147.19
2023-05-18T06:58:24.424Z,-20148.16
2023-05-18T07:00:58.124Z,-20151.25
2023-05-18T07:03:28.230Z,-20153.19
2023-05-18T07:05:58.281Z,-20140.47
2023-05-18T07:08:33.063Z,-20147.59
2023-05-18T07:11:08.135Z,-20144.81
2023-05-18T07:13:37.806Z,-20136.81
2023-05-18T07:16:07.457Z,-20149.00
2023-05-18T07:18:35.763Z,-20163.69
2023-05-18T07:21:03.815Z,-20166.63
2023-05-18T07:23:32.950Z,-20159.25
2023-05-18T07:26:00.967Z,-20155.72
2023-05-18T07:28:28.998Z,-20146.63
2023-05-18T07:30:58.349Z,-20159.06
2023-05-18T07:33:26.403Z,-19830.69
2023-05-18T07:35:54.498Z,-19497.94
2023-05-18T07:38:24.144Z,-19498.91
2023-05-18T07:40:52.130Z,-16878.16
2023-05-18T07:43:20.080Z,-8332.09
2023-05-18T07:45:48.207Z,-7016.38
2023-05-18T07:48:17.758Z,26888.66
2023-05-18T07:50:45.917Z,12202.78
2023-05-18T07:53:14.034Z,7867.69
2023-05-18T07:55:42.534Z,1583.31
2023-05-18T07:58:10.703Z,-6028.78
2023-05-18T08:00:38.958Z,2580.31
2023-05-18T08:03:07.754Z,-1066.84
2023-05-18T08:05:38.185Z,3900.28
2023-05-18T08:08:06.930Z,-5693.53
2023-05-18T08:10:35.602Z,-12942.03
2023-05-18T08:13:03.530Z,-20176.81
2023-05-18T08:15:34.664Z,-18534.13
2023-05-18T08:18:02.844Z,-7670.13
2023-05-18T08:20:31.849Z,-10303.47
2023-05-18T08:23:08.362Z,-14584.34
2023-05-18T08:25:37.762Z,-3051.88
2023-05-18T08:28:05.972Z,-5692.41
2023-05-18T08:30:38.504Z,-405.78
2023-05-18T08:33:06.564Z,-3051.91
2023-05-18T08:35:34.595Z,7556.22
2023-05-18T08:38:05.787Z,21575.31
2023-05-18T08:40:38.740Z,34990.69
2023-05-18T08:43:13.867Z,33643.03
2023-05-18T08:45:45.223Z,33941.75
2023-05-18T08:48:16.629Z,34578.41
2023-05-18T08:50:45.680Z,20858.22
2023-05-18T08:53:19.000Z,42850.00
2023-05-18T08:55:48.787Z,26148.19
2023-05-18T08:58:21.059Z,43255.72
2023-05-18T09:00:53.861Z,49034.22
2023-05-18T09:03:23.392Z,66829.94
2023-05-18T09:05:53.387Z,42876.81
2023-05-18T09:08:23.201Z,47648.44
2023-05-18T09:10:52.836Z,56053.59
2023-05-18T09:13:21.809Z,41279.91
2023-05-18T09:15:51.539Z,66228.50
2023-05-18T09:18:22.052Z,65904.56
2023-05-18T09:20:52.204Z,89646.50
2023-05-18T09:23:20.263Z,76756.44
2023-05-18T09:25:50.826Z,105386.72
2023-05-18T09:28:27.957Z,118856.91
2023-05-18T09:30:56.219Z,113986.31
2023-05-18T09:33:24.552Z,143085.13
2023-05-18T09:35:53.116Z,132099.34
2023-05-18T09:38:23.506Z,146302.03
2023-05-18T09:40:54.092Z,152858.78
2023-05-18T09:43:22.284Z,147197.69
2023-05-18T09:45:58.353Z,148776.06
2023-05-18T09:48:31.827Z,152879.63
2023-05-18T09:51:00.552Z,153204.97
2023-05-18T09:53:28.635Z,153024.03
2023-05-18T09:56:05.049Z,153149.00
2023-05-18T09:58:33.970Z,153218.00
2023-05-18T10:01:02.982Z,152847.13
2023-05-18T10:03:36.848Z,152887.44
2023-05-18T10:06:12.375Z,152834.13
2023-05-18T10:08:45.707Z,153193.22
2023-05-18T10:11:19.929Z,153392.53
2023-05-18T10:13:48.383Z,153692.25
2023-05-18T10:16:17.892Z,153451.16
2023-05-18T10:18:47.155Z,153285.69
2023-05-18T10:21:17.329Z,153012.38
2023-05-18T10:23:51.442Z,153070.94
2023-05-18T10:26:23.963Z,153372.97
2023-05-18T10:28:54.400Z,153341.75
2023-05-18T10:31:24.396Z,153132.06
2023-05-18T10:33:54.258Z,153229.72
2023-05-18T10:36:25.596Z,153302.66
2023-05-18T10:38:54.094Z,153080.00
2023-05-18T10:41:26.048Z,152916.03
2023-05-18T10:44:03.439Z,152788.63
2023-05-18T10:46:32.343Z,153052.69
2023-05-18T10:49:03.758Z,153195.84
2023-05-18T10:51:32.466Z,153408.13
2023-05-18T10:54:12.300Z,153505.88
2023-05-18T10:56:47.822Z,153522.78
2023-05-18T10:59:18.442Z,153488.94
2023-05-18T11:01:49.072Z,153668.84
2023-05-18T11:04:17.526Z,153574.94
2023-05-18T11:06:55.681Z,153378.19
2023-05-18T11:09:26.170Z,153470.66
2023-05-18T11:11:58.816Z,153485.00
2023-05-18T11:14:28.408Z,153573.69
2023-05-18T11:17:20.157Z,153846.22
2023-05-18T11:20:15.537Z,153950.56
2023-05-18T11:22:52.884Z,153488.94
2023-05-18T11:25:45.797Z,153508.47
2023-05-18T11:28:23.711Z,153713.16
2023-05-18T11:30:53.331Z,153332.63
2023-05-18T11:33:27.997Z,153219.28
2023-05-18T11:36:11.587Z,153397.75
2023-05-18T11:38:54.307Z,153346.97
2023-05-18T11:41:36.319Z,153367.78
2023-05-18T11:44:41.079Z,153543.66
2023-05-18T11:47:19.777Z,153511.09
2023-05-18T11:49:49.227Z,153551.53
2023-05-18T11:52:22.417Z,153612.78
2023-05-18T11:54:53.030Z,153452.47
2023-05-18T11:57:24.746Z,153561.97
2023-05-18T11:59:58.375Z,153593.22
2023-05-18T12:02:27.973Z,153803.16
2023-05-18T12:04:58.537Z,153962.31
2023-05-18T12:07:28.302Z,154057.59
2023-05-18T12:09:59.605Z,154062.84
2023-05-18T12:12:31.816Z,154124.19
2023-05-18T12:15:03.730Z,153848.84
2023-05-18T12:17:40.396Z,153747.03
2023-05-18T12:20:10.094Z,153719.66
2023-05-18T12:22:38.397Z,153791.44
2023-05-18T12:25:07.985Z,153916.63
2023-05-18T12:27:43.891Z,153997.53
2023-05-18T12:30:46.901Z,154210.31
2023-05-18T12:33:20.091Z,154237.75
2023-05-18T12:35:59.892Z,153881.41
2023-05-18T12:38:33.512Z,153822.72
2023-05-18T12:41:34.048Z,153694.88
2023-05-18T12:44:03.024Z,153804.44
2023-05-18T12:46:34.048Z,153783.56
2023-05-18T12:49:04.917Z,154018.44
2023-05-18T12:51:38.571Z,154207.69
2023-05-18T12:54:35.379Z,154377.50
2023-05-18T12:57:10.060Z,153977.94
2023-05-18T12:59:49.139Z,154189.41
2023-05-18T13:02:34.898Z,154520.00
2023-05-18T13:05:08.791Z,154445.44
2023-05-18T13:07:38.640Z,154347.50
2023-05-18T13:10:44.751Z,154117.66
2023-05-18T13:13:29.053Z,154305.66
2023-05-18T13:19:37.932Z,154177.69
2023-05-18T13:22:25.178Z,154147.66
2023-05-18T13:25:23.970Z,153903.63
2023-05-18T13:28:16.675Z,153783.56
2023-05-18T13:30:50.294Z,153864.44
2023-05-18T13:33:30.136Z,154051.06
2023-05-18T13:36:06.885Z,153810.97
2023-05-18T13:38:37.711Z,153760.06
2023-05-18T13:41:07.672Z,153841.00
2023-05-18T13:43:36.589Z,153830.56
2023-05-18T13:46:07.505Z,153734.03
2023-05-18T13:48:35.929Z,153710.53
2023-05-18T13:51:13.513Z,153919.22
2023-05-18T13:54:02.455Z,154129.41
2023-05-18T13:56:30.701Z,154115.03
2023-05-18T13:58:59.202Z,154164.63
2023-05-18T14:01:38.919Z,154287.41
2023-05-18T14:04:08.009Z,154301.75
2023-05-18T14:06:39.095Z,154151.56
2023-05-18T14:09:10.677Z,153979.25
2023-05-18T14:11:41.540Z,154210.31
2023-05-18T14:14:13.088Z,154399.75
2023-05-18T14:16:41.547Z,154688.66
2023-05-18T14:19:10.302Z,154415.38
2023-05-18T14:21:41.722Z,154117.66
2023-05-18T14:24:11.327Z,154060.22
2023-05-18T14:26:48.006Z,153961.00
2023-05-18T14:29:17.757Z,153867.06
2023-05-18T14:31:46.435Z,153697.50
2023-05-18T14:34:14.774Z,154024.94
2023-05-18T14:36:46.031Z,154135.88
2023-05-18T14:39:16.704Z,154284.81
2023-05-18T14:41:59.677Z,153947.94
2023-05-18T14:44:27.839Z,154219.47
2023-05-18T14:47:22.061Z,154141.09
2023-05-18T14:49:56.057Z,154228.59
2023-05-18T14:52:42.845Z,154117.66
2023-05-18T14:55:12.372Z,154240.38
2023-05-18T14:57:41.700Z,154368.38
2023-05-18T15:00:13.200Z,154222.06
2023-05-18T15:02:42.500Z,153974.03
2023-05-18T15:05:11.299Z,153655.78
2023-05-18T15:07:40.700Z,153646.66
2023-05-18T15:10:10.005Z,153707.94
2023-05-18T15:12:38.114Z,153689.66
2023-05-18T15:15:07.766Z,153628.44
2023-05-18T15:17:35.988Z,153561.97
2023-05-18T15:20:04.473Z,153431.59
2023-05-18T15:22:35.685Z,153339.13
2023-05-18T15:25:07.446Z,153294.88
2023-05-18T15:27:38.529Z,153246.59
2023-05-18T15:30:12.883Z,153409.44
2023-05-18T15:32:42.643Z,153572.38
2023-05-18T15:35:11.071Z,153449.84
2023-05-18T15:37:40.106Z,153517.63
2023-05-18T15:40:15.089Z,153624.53
2023-05-18T15:42:44.367Z,153544.94
2023-05-18T15:45:14.627Z,153675.34
2023-05-18T15:47:45.973Z,153515.00
2023-05-18T15:50:14.437Z,153576.25
2023-05-18T15:52:42.615Z,153734.03
2023-05-18T15:55:12.233Z,153814.88
2023-05-18T15:57:40.503Z,153890.56
2023-05-18T16:00:09.831Z,153923.16
2023-05-18T16:02:38.276Z,153989.69
2023-05-18T16:05:12.437Z,153844.91
2023-05-18T16:07:47.617Z,153824.03
2023-05-18T16:10:26.819Z,153778.34
2023-05-18T16:13:00.404Z,153991.00
2023-05-18T16:15:29.701Z,153807.06
2023-05-18T16:18:09.811Z,154018.44
2023-05-18T16:20:42.095Z,153584.09
2023-05-18T16:23:20.825Z,153674.03
2023-05-18T16:25:52.503Z,153709.22
2023-05-18T16:28:20.759Z,153756.16
2023-05-18T16:30:48.783Z,153812.28
2023-05-18T16:33:17.115Z,153861.84
2023-05-18T16:35:46.313Z,153542.34
2023-05-18T16:38:14.578Z,153483.72
2023-05-18T16:40:48.531Z,153528.00
2023-05-18T16:43:18.391Z,153465.44
2023-05-18T16:45:50.781Z,153512.41
2023-05-18T16:48:18.848Z,153488.94
2023-05-18T16:50:47.988Z,153500.66
2023-05-18T16:53:16.234Z,153580.16
2023-05-18T16:55:48.481Z,153479.78
2023-05-18T16:58:17.797Z,153223.19
2023-05-18T17:00:45.960Z,153267.44
2023-05-18T17:03:18.275Z,153163.31
2023-05-18T17:05:46.697Z,153207.56
2023-05-18T17:08:15.191Z,153151.59
2023-05-18T17:10:43.222Z,153194.53
2023-05-18T17:13:11.349Z,153134.66
2023-05-18T17:15:41.272Z,153225.81
2023-05-18T17:18:10.517Z,153307.84
2023-05-18T17:20:38.649Z,153284.41
2023-05-18T17:23:06.692Z,153184.16
2023-05-18T17:25:34.900Z,153074.78
2023-05-18T17:28:02.893Z,153100.84
2023-05-18T17:30:32.299Z,153100.84
2023-05-18T17:33:02.027Z,153135.97
2023-05-18T17:35:30.111Z,153070.94
2023-05-18T17:37:58.481Z,152990.19
2023-05-18T17:40:27.040Z,153001.91
2023-05-18T17:42:55.055Z,152977.16
2023-05-18T17:45:26.235Z,152886.13
2023-05-18T17:47:54.626Z,152988.88
2023-05-18T17:50:25.298Z,153067.03
2023-05-18T17:52:53.263Z,152957.69
2023-05-18T17:55:23.937Z,152918.63
2023-05-18T17:57:52.531Z,152830.22
2023-05-18T18:00:21.321Z,152849.72
2023-05-18T18:02:49.444Z,152717.09
2023-05-18T18:08:48.027Z,152632.53
2023-05-18T18:11:16.120Z,152637.75
2023-05-18T18:13:44.048Z,152633.84
2023-05-18T18:16:13.030Z,152598.78
2023-05-18T18:18:42.619Z,152579.25
2023-05-18T18:21:12.628Z,152535.09
2023-05-18T18:23:41.492Z,152450.69
2023-05-18T18:26:09.623Z,152320.75
2023-05-18T18:28:43.329Z,152258.44
2023-05-18T18:31:20.066Z,152215.63
2023-05-18T18:33:51.420Z,152162.41
2023-05-18T18:36:20.960Z,149047.50
2023-05-18T18:38:50.000Z,131512.34
2023-05-18T18:41:18.341Z,102815.38
2023-05-18T18:43:46.490Z,93724.34
2023-05-18T18:46:14.661Z,77176.63
2023-05-18T18:48:42.862Z,59638.22
2023-05-18T18:51:10.897Z,54598.00
2023-05-18T18:53:41.503Z,33431.25
2023-05-18T18:56:09.672Z,14115.63
2023-05-18T18:58:37.770Z,4855.97
2023-05-18T19:01:05.787Z,-2722.63
2023-05-18T19:03:34.402Z,-11267.13
2023-05-18T19:06:02.982Z,-15529.03
2023-05-18T19:08:31.669Z,-16509.38
2023-05-18T19:11:01.177Z,-19126.69
2023-05-18T19:13:29.382Z,-20108.25
2023-05-18T19:15:58.268Z,-20101.94
2023-05-18T19:18:26.364Z,-20097.75
2023-05-18T19:20:56.290Z,-20102.22
2023-05-18T19:23:24.467Z,-20094.38
2023-05-18T19:25:55.008Z,-20094.09
2023-05-18T19:28:24.474Z,-20090.44
2023-05-18T19:30:52.527Z,-20092.41
2023-05-18T19:33:20.614Z,-20090.72
2023-05-18T19:35:49.622Z,-20089.88
2023-05-18T19:38:17.623Z,-20088.91
2023-05-18T19:40:45.571Z,-20086.94
2023-05-18T19:43:13.599Z,-20081.63
2023-05-18T19:45:43.341Z,-20081.75
2023-05-18T19:48:11.676Z,-20079.50
2023-05-18T19:50:39.744Z,-20079.66
2023-05-18T19:53:07.889Z,-20076.44
2023-05-18T19:55:36.093Z,-20078.94
2023-05-18T19:58:04.071Z,-20077.13
2023-05-18T20:00:33.210Z,-20072.50
2023-05-18T20:03:03.873Z,-20074.03
2023-05-18T20:05:32.004Z,-20066.03
2023-05-18T20:08:02.156Z,-20070.69
2023-05-18T20:10:31.446Z,-20071.66
2023-05-18T20:12:59.486Z,-20068.00
2023-05-18T20:15:29.758Z,-20066.47
2023-05-18T20:17:58.023Z,-20064.91
2023-05-18T20:20:30.586Z,-20065.63
2023-05-18T20:22:59.555Z,-20065.47
2023-05-18T20:25:28.024Z,-20063.38
2023-05-18T20:28:00.842Z,-20061.13
2023-05-18T20:30:31.087Z,-20062.97
2023-05-18T20:33:00.037Z,-20060.56
2023-05-18T20:35:30.557Z,-20055.53
2023-05-18T20:37:59.710Z,-20051.44
2023-05-18T20:40:30.853Z,-20050.75
2023-05-18T20:43:01.026Z,-20048.34
2023-05-18T20:45:32.429Z,-20049.19
2023-05-18T20:48:25.026Z,-20047.94
2023-05-18T20:51:03.526Z,-20047.22
2023-05-18T20:53:44.990Z,-20046.94
2023-05-18T20:56:18.232Z,-20044.72
2023-05-18T20:59:00.342Z,-14750.72
2023-05-18T21:01:39.419Z,19348.75
2023-05-18T21:04:13.356Z,38988.84
2023-05-18T21:06:44.687Z,45623.44
2023-05-18T21:09:12.996Z,56853.09
2023-05-18T21:11:42.785Z,67044.31
2023-05-18T21:14:11.050Z,92311.16
2023-05-18T21:16:39.249Z,108663.13
2023-05-18T21:19:07.805Z,118151.97
2023-05-18T21:21:37.326Z,129923.09
2023-05-18T21:24:07.202Z,135383.72
2023-05-18T21:26:35.255Z,140349.19
2023-05-18T21:29:03.522Z,145902.22
2023-05-18T21:31:38.887Z,149932.28
2023-05-18T21:34:08.438Z,150966.81
2023-05-18T21:36:36.636Z,150975.81
2023-05-18T21:39:09.661Z,150924.13
2023-05-18T21:41:40.292Z,150908.63
2023-05-18T21:44:08.465Z,150926.69
2023-05-18T21:46:37.077Z,150921.53
2023-05-18T21:49:06.571Z,150971.94
2023-05-18T21:51:34.669Z,150991.34
2023-05-18T21:54:02.730Z,151003.00
2023-05-18T21:56:34.666Z,150968.09
2023-05-18T21:59:02.793Z,150911.22
2023-05-18T22:01:31.798Z,150942.22
2023-05-18T22:03:59.796Z,150939.63
2023-05-18T22:06:29.046Z,150938.34
2023-05-18T22:08:58.546Z,150911.22
2023-05-18T22:11:26.703Z,150887.94
2023-05-18T22:13:56.512Z,150891.81
2023-05-18T22:16:24.431Z,150864.66
2023-05-18T22:18:52.558Z,150908.63
2023-05-18T22:21:22.929Z,150924.13
2023-05-18T22:23:56.705Z,150906.06
2023-05-18T22:26:24.682Z,150869.84
2023-05-18T22:28:53.660Z,150868.53
2023-05-18T22:31:23.095Z,150885.34
2023-05-18T22:33:53.958Z,150859.53
2023-05-18T22:36:22.873Z,150844.00
2023-05-18T22:38:52.524Z,150836.25
2023-05-18T22:41:21.973Z,150818.16
2023-05-18T22:43:49.988Z,150809.09
2023-05-18T22:46:18.230Z,150780.69
2023-05-18T22:48:48.073Z,150800.09
2023-05-18T22:51:18.756Z,150789.75
2023-05-18T22:53:47.039Z,150762.59
2023-05-18T22:56:20.225Z,150701.88
2023-05-18T22:58:49.266Z,150778.09
2023-05-18T23:01:17.354Z,150741.97
2023-05-18T23:03:45.819Z,150713.50
2023-05-18T23:06:15.450Z,150722.56
2023-05-18T23:08:44.045Z,150734.19
2023-05-18T23:11:12.069Z,150765.19
2023-05-18T23:13:39.932Z,150735.50
2023-05-18T23:16:10.414Z,150748.44
2023-05-18T23:18:40.086Z,150694.19
2023-05-18T23:21:10.503Z,150683.84
2023-05-18T23:23:40.299Z,150681.25
2023-05-18T23:26:09.362Z,150691.59
2023-05-18T23:28:38.340Z,150639.94
2023-05-18T23:31:06.733Z,150655.41
2023-05-18T23:33:35.564Z,150699.28
2023-05-18T23:36:04.757Z,150652.81
2023-05-18T23:38:37.835Z,150624.44
2023-05-18T23:41:10.550Z,150676.06
2023-05-18T23:43:39.999Z,150646.34
2023-05-18T23:46:10.355Z,150627.00
2023-05-18T23:48:39.019Z,150611.50
2023-05-18T23:51:09.504Z,150584.41
2023-05-18T23:53:38.181Z,150557.28
2023-05-18T23:56:09.079Z,150577.97
2023-05-18T23:58:37.599Z,150554.69
